sensor_id;sensor_type;location;lat;lon;timestamp;pressure;altitude;pressure_sealevel;temperature;humidity
65384;BME280;51986;52.788;41.368;2023-04-08T00:00:02;100123.00;;;5.59;44.03
65384;BME280;51986;52.788;41.368;2023-04-08T00:02:35;100094.47;;;5.69;43.58
65384;BME280;51986;52.788;41.368;2023-04-08T00:05:03;100108.66;;;5.53;43.71
65384;BME280;51986;52.788;41.368;2023-04-08T00:07:30;100068.88;;;5.31;44.14
65384;BME280;51986;52.788;41.368;2023-04-08T00:09:57;100103.31;;;5.33;44.05
65384;BME280;51986;52.788;41.368;2023-04-08T00:12:24;100106.44;;;5.39;44.47
65384;BME280;51986;52.788;41.368;2023-04-08T00:14:51;100104.75;;;5.31;44.50
65384;BME280;51986;52.788;41.368;2023-04-08T00:17:18;100135.56;;;5.37;44.73
65384;BME280;51986;52.788;41.368;2023-04-08T00:19:45;100148.41;;;5.42;44.82
65384;BME280;51986;52.788;41.368;2023-04-08T00:22:12;100112.44;;;5.39;44.85
65384;BME280;51986;52.788;41.368;2023-04-08T00:24:39;100091.72;;;5.03;45.20
65384;BME280;51986;52.788;41.368;2023-04-08T00:27:06;100126.22;;;5.08;45.88
65384;BME280;51986;52.788;41.368;2023-04-08T00:29:33;100091.94;;;4.98;45.39
65384;BME280;51986;52.788;41.368;2023-04-08T00:32:00;100117.63;;;5.08;45.55
65384;BME280;51986;52.788;41.368;2023-04-08T00:34:27;100106.28;;;5.04;45.35
65384;BME280;51986;52.788;41.368;2023-04-08T00:36:54;100076.03;;;4.75;45.34
65384;BME280;51986;52.788;41.368;2023-04-08T00:39:21;100123.50;;;5.05;45.71
65384;BME280;51986;52.788;41.368;2023-04-08T00:41:48;100127.47;;;4.86;45.78
65384;BME280;51986;52.788;41.368;2023-04-08T00:44:15;100118.84;;;4.58;47.55
65384;BME280;51986;52.788;41.368;2023-04-08T00:46:42;100133.94;;;4.77;46.96
65384;BME280;51986;52.788;41.368;2023-04-08T00:49:09;100107.97;;;4.68;46.50
65384;BME280;51986;52.788;41.368;2023-04-08T00:51:36;100103.41;;;4.53;47.34
65384;BME280;51986;52.788;41.368;2023-04-08T00:54:03;100120.63;;;4.54;47.02
65384;BME280;51986;52.788;41.368;2023-04-08T00:56:31;100095.28;;;4.30;47.48
65384;BME280;51986;52.788;41.368;2023-04-08T00:59:01;100126.50;;;4.51;47.42
65384;BME280;51986;52.788;41.368;2023-04-08T01:04:14;100119.09;;;4.28;47.91
65384;BME280;51986;52.788;41.368;2023-04-08T01:06:48;100121.59;;;4.37;48.00
65384;BME280;51986;52.788;41.368;2023-04-08T01:09:20;100121.41;;;4.30;47.60
65384;BME280;51986;52.788;41.368;2023-04-08T01:11:50;100108.00;;;4.31;48.03
65384;BME280;51986;52.788;41.368;2023-04-08T01:14:22;100127.16;;;3.99;48.68
65384;BME280;51986;52.788;41.368;2023-04-08T01:16:54;100134.03;;;4.03;48.71
65384;BME280;51986;52.788;41.368;2023-04-08T01:19:32;100148.16;;;4.02;49.28
65384;BME280;51986;52.788;41.368;2023-04-08T01:24:42;100146.53;;;4.10;49.15
65384;BME280;51986;52.788;41.368;2023-04-08T01:27:11;100134.25;;;3.98;48.78
65384;BME280;51986;52.788;41.368;2023-04-08T01:29:40;100118.03;;;3.93;48.76
65384;BME280;51986;52.788;41.368;2023-04-08T01:32:09;100127.16;;;3.99;49.09
65384;BME280;51986;52.788;41.368;2023-04-08T01:34:38;100111.50;;;3.99;49.15
65384;BME280;51986;52.788;41.368;2023-04-08T01:37:07;100165.31;;;3.91;49.71
65384;BME280;51986;52.788;41.368;2023-04-08T01:39:35;100132.19;;;3.92;49.49
65384;BME280;51986;52.788;41.368;2023-04-08T01:42:04;100134.22;;;4.10;49.51
65384;BME280;51986;52.788;41.368;2023-04-08T01:44:31;100140.34;;;4.02;49.25
65384;BME280;51986;52.788;41.368;2023-04-08T01:46:59;100130.09;;;3.85;49.67
65384;BME280;51986;52.788;41.368;2023-04-08T01:49:27;100145.41;;;3.86;50.11
65384;BME280;51986;52.788;41.368;2023-04-08T01:51:57;100162.84;;;3.82;50.76
65384;BME280;51986;52.788;41.368;2023-04-08T01:54:24;100154.56;;;3.68;50.83
65384;BME280;51986;52.788;41.368;2023-04-08T01:56:53;100170.28;;;3.72;50.85
65384;BME280;51986;52.788;41.368;2023-04-08T01:59:22;100157.38;;;3.75;51.39
65384;BME280;51986;52.788;41.368;2023-04-08T02:01:50;100173.16;;;3.79;50.82
65384;BME280;51986;52.788;41.368;2023-04-08T02:04:18;100142.47;;;3.63;51.21
65384;BME280;51986;52.788;41.368;2023-04-08T02:06:45;100166.63;;;3.73;51.25
65384;BME280;51986;52.788;41.368;2023-04-08T02:09:12;100163.84;;;3.57;52.12
65384;BME280;51986;52.788;41.368;2023-04-08T02:11:39;100164.22;;;3.68;51.29
65384;BME280;51986;52.788;41.368;2023-04-08T02:14:06;100168.22;;;3.65;51.70
65384;BME280;51986;52.788;41.368;2023-04-08T02:19:23;100170.03;;;3.52;52.34
65384;BME280;51986;52.788;41.368;2023-04-08T02:21:54;100178.28;;;3.42;52.71
65384;BME280;51986;52.788;41.368;2023-04-08T02:24:25;100176.59;;;3.71;51.78
65384;BME280;51986;52.788;41.368;2023-04-08T02:26:57;100193.03;;;3.71;51.90
65384;BME280;51986;52.788;41.368;2023-04-08T02:29:25;100177.63;;;3.78;51.27
65384;BME280;51986;52.788;41.368;2023-04-08T02:31:56;100203.94;;;3.85;51.35
65384;BME280;51986;52.788;41.368;2023-04-08T02:34:24;100169.25;;;3.85;51.76
65384;BME280;51986;52.788;41.368;2023-04-08T02:36:52;100161.69;;;3.59;51.95
65384;BME280;51986;52.788;41.368;2023-04-08T02:39:19;100195.00;;;3.74;52.28
65384;BME280;51986;52.788;41.368;2023-04-08T02:41:48;100198.50;;;3.45;52.78
65384;BME280;51986;52.788;41.368;2023-04-08T02:44:15;100212.41;;;3.82;52.13
65384;BME280;51986;52.788;41.368;2023-04-08T02:46:44;100193.22;;;4.11;51.64
65384;BME280;51986;52.788;41.368;2023-04-08T02:49:11;100188.34;;;4.47;50.77
65384;BME280;51986;52.788;41.368;2023-04-08T02:51:38;100212.69;;;4.75;49.81
65384;BME280;51986;52.788;41.368;2023-04-08T02:54:05;100190.22;;;4.86;49.73
65384;BME280;51986;52.788;41.368;2023-04-08T02:56:32;100202.94;;;5.40;49.47
65384;BME280;51986;52.788;41.368;2023-04-08T02:58:59;100197.00;;;5.87;47.50
65384;BME280;51986;52.788;41.368;2023-04-08T03:01:26;100218.03;;;6.07;47.02
65384;BME280;51986;52.788;41.368;2023-04-08T03:03:53;100205.59;;;6.86;45.79
65384;BME280;51986;52.788;41.368;2023-04-08T03:06:20;100197.41;;;7.69;43.73
65384;BME280;51986;52.788;41.368;2023-04-08T03:08:46;100204.09;;;8.12;42.42
65384;BME280;51986;52.788;41.368;2023-04-08T03:11:14;100214.28;;;8.93;40.44
65384;BME280;51986;52.788;41.368;2023-04-08T03:13:41;100195.22;;;9.03;40.47
65384;BME280;51986;52.788;41.368;2023-04-08T03:16:08;100191.75;;;9.70;39.17
65384;BME280;51986;52.788;41.368;2023-04-08T03:18:35;100193.16;;;10.01;38.46
65384;BME280;51986;52.788;41.368;2023-04-08T03:21:02;100184.13;;;10.54;37.34
65384;BME280;51986;52.788;41.368;2023-04-08T03:23:28;100204.00;;;11.28;36.31
65384;BME280;51986;52.788;41.368;2023-04-08T03:25:55;100194.63;;;11.63;35.19
65384;BME280;51986;52.788;41.368;2023-04-08T03:28:22;100187.44;;;12.34;34.16
65384;BME280;51986;52.788;41.368;2023-04-08T03:30:49;100202.88;;;12.61;33.63
65384;BME280;51986;52.788;41.368;2023-04-08T03:33:16;100167.72;;;12.60;33.15
65384;BME280;51986;52.788;41.368;2023-04-08T03:35:43;100194.44;;;13.05;32.52
65384;BME280;51986;52.788;41.368;2023-04-08T03:38:10;100192.16;;;13.67;31.96
65384;BME280;51986;52.788;41.368;2023-04-08T03:40:37;100166.19;;;14.37;30.24
65384;BME280;51986;52.788;41.368;2023-04-08T03:43:04;100192.69;;;14.75;29.89
65384;BME280;51986;52.788;41.368;2023-04-08T03:45:31;100196.69;;;14.22;29.76
65384;BME280;51986;52.788;41.368;2023-04-08T03:47:58;100189.47;;;14.90;29.63
65384;BME280;51986;52.788;41.368;2023-04-08T03:50:25;100198.63;;;14.86;29.48
65384;BME280;51986;52.788;41.368;2023-04-08T03:52:52;100203.50;;;15.76;28.43
65384;BME280;51986;52.788;41.368;2023-04-08T03:55:19;100192.06;;;15.52;28.53
65384;BME280;51986;52.788;41.368;2023-04-08T03:57:46;100173.81;;;15.77;28.38
65384;BME280;51986;52.788;41.368;2023-04-08T04:00:13;100145.66;;;15.80;28.53
65384;BME280;51986;52.788;41.368;2023-04-08T04:02:43;100204.56;;;16.02;28.52
65384;BME280;51986;52.788;41.368;2023-04-08T04:05:10;100179.47;;;15.56;28.77
65384;BME280;51986;52.788;41.368;2023-04-08T04:07:37;100211.41;;;15.56;28.50
65384;BME280;51986;52.788;41.368;2023-04-08T04:10:05;100199.31;;;14.94;29.83
65384;BME280;51986;52.788;41.368;2023-04-08T04:12:32;100203.59;;;14.84;30.10
65384;BME280;51986;52.788;41.368;2023-04-08T04:14:59;100207.28;;;15.21;29.23
65384;BME280;51986;52.788;41.368;2023-04-08T04:17:26;100222.84;;;14.91;29.87
65384;BME280;51986;52.788;41.368;2023-04-08T04:19:53;100191.69;;;14.61;30.60
65384;BME280;51986;52.788;41.368;2023-04-08T04:22:20;100209.31;;;14.45;30.95
65384;BME280;51986;52.788;41.368;2023-04-08T04:24:47;100213.50;;;14.01;31.85
65384;BME280;51986;52.788;41.368;2023-04-08T04:27:15;100172.09;;;14.10;31.83
65384;BME280;51986;52.788;41.368;2023-04-08T04:29:42;100199.19;;;13.87;32.18
65384;BME280;51986;52.788;41.368;2023-04-08T04:32:10;100205.28;;;13.84;32.32
65384;BME280;51986;52.788;41.368;2023-04-08T04:34:37;100248.53;;;13.08;33.97
65384;BME280;51986;52.788;41.368;2023-04-08T04:37:04;100233.53;;;12.55;35.22
65384;BME280;51986;52.788;41.368;2023-04-08T04:39:31;100244.84;;;12.66;35.34
65384;BME280;51986;52.788;41.368;2023-04-08T04:41:58;100216.09;;;12.75;35.07
65384;BME280;51986;52.788;41.368;2023-04-08T04:44:25;100239.97;;;12.43;35.45
65384;BME280;51986;52.788;41.368;2023-04-08T04:46:52;100228.63;;;12.46;35.55
65384;BME280;51986;52.788;41.368;2023-04-08T04:49:19;100240.00;;;12.36;36.01
65384;BME280;51986;52.788;41.368;2023-04-08T04:51:46;100232.81;;;12.40;36.48
65384;BME280;51986;52.788;41.368;2023-04-08T04:54:13;100241.91;;;11.96;36.94
65384;BME280;51986;52.788;41.368;2023-04-08T04:56:40;100241.00;;;11.35;38.75
65384;BME280;51986;52.788;41.368;2023-04-08T04:59:07;100239.56;;;11.66;38.34
65384;BME280;51986;52.788;41.368;2023-04-08T05:01:34;100258.41;;;11.57;39.03
65384;BME280;51986;52.788;41.368;2023-04-08T05:04:01;100267.50;;;11.64;38.29
65384;BME280;51986;52.788;41.368;2023-04-08T05:06:28;100245.41;;;11.02;40.09
65384;BME280;51986;52.788;41.368;2023-04-08T05:08:55;100260.97;;;11.22;40.51
65384;BME280;51986;52.788;41.368;2023-04-08T05:11:23;100258.34;;;11.32;40.10
65384;BME280;51986;52.788;41.368;2023-04-08T05:13:50;100268.50;;;11.20;39.97
65384;BME280;51986;52.788;41.368;2023-04-08T05:16:17;100253.91;;;10.71;41.84
65384;BME280;51986;52.788;41.368;2023-04-08T05:18:44;100260.31;;;10.70;41.57
65384;BME280;51986;52.788;41.368;2023-04-08T05:21:11;100280.56;;;10.51;42.33
65384;BME280;51986;52.788;41.368;2023-04-08T05:23:38;100273.84;;;10.61;42.02
65384;BME280;51986;52.788;41.368;2023-04-08T05:26:08;100262.09;;;10.48;42.14
65384;BME280;51986;52.788;41.368;2023-04-08T05:28:35;100266.41;;;10.77;41.92
65384;BME280;51986;52.788;41.368;2023-04-08T05:31:02;100268.75;;;10.93;41.38
65384;BME280;51986;52.788;41.368;2023-04-08T05:33:31;100238.66;;;11.08;41.15
65384;BME280;51986;52.788;41.368;2023-04-08T05:35:58;100288.53;;;11.28;41.24
65384;BME280;51986;52.788;41.368;2023-04-08T05:38:25;100272.47;;;10.81;42.00
65384;BME280;51986;52.788;41.368;2023-04-08T05:40:52;100271.59;;;11.40;40.60
65384;BME280;51986;52.788;41.368;2023-04-08T05:43:19;100295.41;;;11.50;41.02
65384;BME280;51986;52.788;41.368;2023-04-08T05:45:46;100280.63;;;11.31;41.04
65384;BME280;51986;52.788;41.368;2023-04-08T05:48:13;100276.06;;;11.25;41.86
65384;BME280;51986;52.788;41.368;2023-04-08T05:50:42;100263.66;;;11.36;40.76
65384;BME280;51986;52.788;41.368;2023-04-08T05:53:09;100271.16;;;11.20;40.48
65384;BME280;51986;52.788;41.368;2023-04-08T05:55:36;100278.81;;;11.53;41.51
65384;BME280;51986;52.788;41.368;2023-04-08T05:58:03;100276.25;;;11.82;40.68
65384;BME280;51986;52.788;41.368;2023-04-08T06:00:29;100282.69;;;12.02;40.45
65384;BME280;51986;52.788;41.368;2023-04-08T06:02:56;100281.19;;;12.01;40.56
65384;BME280;51986;52.788;41.368;2023-04-08T06:05:23;100269.09;;;12.22;40.27
65384;BME280;51986;52.788;41.368;2023-04-08T06:07:50;100294.38;;;11.80;41.05
65384;BME280;51986;52.788;41.368;2023-04-08T06:10:17;100263.78;;;12.47;39.23
65384;BME280;51986;52.788;41.368;2023-04-08T06:12:44;100272.06;;;12.63;40.00
65384;BME280;51986;52.788;41.368;2023-04-08T06:15:11;100281.94;;;12.55;39.57
65384;BME280;51986;52.788;41.368;2023-04-08T06:17:38;100272.88;;;12.42;39.48
65384;BME280;51986;52.788;41.368;2023-04-08T06:20:05;100273.63;;;12.25;39.84
65384;BME280;51986;52.788;41.368;2023-04-08T06:22:32;100297.03;;;11.87;40.97
65384;BME280;51986;52.788;41.368;2023-04-08T06:24:59;100286.84;;;12.14;40.03
65384;BME280;51986;52.788;41.368;2023-04-08T06:27:26;100295.56;;;12.32;39.98
65384;BME280;51986;52.788;41.368;2023-04-08T06:29:54;100293.28;;;12.09;41.24
65384;BME280;51986;52.788;41.368;2023-04-08T06:32:21;100293.28;;;12.24;40.35
65384;BME280;51986;52.788;41.368;2023-04-08T06:34:48;100264.19;;;12.31;40.35
65384;BME280;51986;52.788;41.368;2023-04-08T06:37:15;100284.22;;;12.32;40.48
65384;BME280;51986;52.788;41.368;2023-04-08T06:39:45;100294.75;;;12.71;39.83
65384;BME280;51986;52.788;41.368;2023-04-08T06:42:12;100292.50;;;12.73;39.92
65384;BME280;51986;52.788;41.368;2023-04-08T06:45:01;100290.25;;;12.54;39.98
65384;BME280;51986;52.788;41.368;2023-04-08T06:47:28;100292.53;;;12.27;40.17
65384;BME280;51986;52.788;41.368;2023-04-08T06:49:55;100287.59;;;12.61;39.91
65384;BME280;51986;52.788;41.368;2023-04-08T06:52:22;100277.34;;;12.77;39.48
65384;BME280;51986;52.788;41.368;2023-04-08T06:54:49;100283.41;;;12.74;39.94
65384;BME280;51986;52.788;41.368;2023-04-08T06:57:35;100290.53;;;13.06;39.00
65384;BME280;51986;52.788;41.368;2023-04-08T07:00:20;100292.34;;;13.27;39.18
65384;BME280;51986;52.788;41.368;2023-04-08T07:02:47;100289.44;;;12.89;38.99
65384;BME280;51986;52.788;41.368;2023-04-08T07:05:14;100287.91;;;13.02;39.33
65384;BME280;51986;52.788;41.368;2023-04-08T07:07:41;100275.06;;;12.79;39.34
65384;BME280;51986;52.788;41.368;2023-04-08T07:10:08;100275.03;;;12.97;39.49
65384;BME280;51986;52.788;41.368;2023-04-08T07:12:37;100273.56;;;12.75;39.35
65384;BME280;51986;52.788;41.368;2023-04-08T07:15:04;100290.22;;;12.72;39.18
65384;BME280;51986;52.788;41.368;2023-04-08T07:17:31;100282.56;;;13.09;37.92
65384;BME280;51986;52.788;41.368;2023-04-08T07:22:44;100269.44;;;12.59;39.41
65384;BME280;51986;52.788;41.368;2023-04-08T07:25:11;100289.44;;;12.89;38.84
65384;BME280;51986;52.788;41.368;2023-04-08T07:27:38;100277.22;;;13.24;38.08
65384;BME280;51986;52.788;41.368;2023-04-08T07:30:05;100285.38;;;13.58;37.48
65384;BME280;51986;52.788;41.368;2023-04-08T07:32:33;100279.97;;;13.79;37.52
65384;BME280;51986;52.788;41.368;2023-04-08T07:35:19;100303.66;;;13.38;38.37
65384;BME280;51986;52.788;41.368;2023-04-08T07:37:47;100296.03;;;13.47;37.88
65384;BME280;51986;52.788;41.368;2023-04-08T07:40:14;100271.66;;;13.74;37.35
65384;BME280;51986;52.788;41.368;2023-04-08T07:43:00;100275.81;;;12.80;38.14
65384;BME280;51986;52.788;41.368;2023-04-08T07:45:27;100274.69;;;12.81;38.18
65384;BME280;51986;52.788;41.368;2023-04-08T07:47:54;100286.38;;;13.82;36.33
65384;BME280;51986;52.788;41.368;2023-04-08T07:50:21;100290.88;;;13.19;37.65
65384;BME280;51986;52.788;41.368;2023-04-08T07:55:34;100279.66;;;12.57;38.29
65384;BME280;51986;52.788;41.368;2023-04-08T07:58:01;100275.88;;;12.69;37.98
65384;BME280;51986;52.788;41.368;2023-04-08T08:00:28;100278.91;;;12.28;38.39
65384;BME280;51986;52.788;41.368;2023-04-08T08:02:55;100275.16;;;12.08;37.97
65384;BME280;51986;52.788;41.368;2023-04-08T08:05:23;100280.06;;;12.13;38.44
65384;BME280;51986;52.788;41.368;2023-04-08T08:07:50;100258.50;;;12.32;37.65
65384;BME280;51986;52.788;41.368;2023-04-08T08:10:17;100288.69;;;12.85;36.51
65384;BME280;51986;52.788;41.368;2023-04-08T08:12:44;100283.81;;;12.58;35.89
65384;BME280;51986;52.788;41.368;2023-04-08T08:15:11;100299.72;;;12.37;35.76
65384;BME280;51986;52.788;41.368;2023-04-08T08:17:38;100267.59;;;12.03;36.05
65384;BME280;51986;52.788;41.368;2023-04-08T08:20:06;100286.44;;;11.80;34.88
65384;BME280;51986;52.788;41.368;2023-04-08T08:22:33;100289.88;;;12.38;34.17
65384;BME280;51986;52.788;41.368;2023-04-08T08:25:07;100292.91;;;12.36;34.62
65384;BME280;51986;52.788;41.368;2023-04-08T08:27:34;100268.88;;;13.29;33.72
65384;BME280;51986;52.788;41.368;2023-04-08T08:30:05;100282.50;;;13.31;32.95
65384;BME280;51986;52.788;41.368;2023-04-08T08:32:32;100288.16;;;13.29;32.63
65384;BME280;51986;52.788;41.368;2023-04-08T08:34:59;100249.28;;;13.12;32.94
65384;BME280;51986;52.788;41.368;2023-04-08T08:37:26;100284.09;;;12.96;33.37
65384;BME280;51986;52.788;41.368;2023-04-08T08:39:53;100269.19;;;14.01;31.87
65384;BME280;51986;52.788;41.368;2023-04-08T08:42:21;100239.91;;;14.19;31.58
65384;BME280;51986;52.788;41.368;2023-04-08T08:44:48;100278.53;;;14.64;31.45
65384;BME280;51986;52.788;41.368;2023-04-08T08:47:16;100269.88;;;14.15;31.31
65384;BME280;51986;52.788;41.368;2023-04-08T08:49:44;100288.06;;;13.54;32.81
65384;BME280;51986;52.788;41.368;2023-04-08T08:52:15;100288.44;;;13.49;31.99
65384;BME280;51986;52.788;41.368;2023-04-08T08:54:43;100289.97;;;13.50;32.38
65384;BME280;51986;52.788;41.368;2023-04-08T08:57:19;100279.03;;;13.41;32.21
65384;BME280;51986;52.788;41.368;2023-04-08T08:59:47;100261.69;;;13.29;32.46
65384;BME280;51986;52.788;41.368;2023-04-08T09:02:34;100285.03;;;13.56;32.37
65384;BME280;51986;52.788;41.368;2023-04-08T09:05:03;100286.69;;;13.25;32.54
65384;BME280;51986;52.788;41.368;2023-04-08T09:07:34;100272.47;;;13.67;32.06
65384;BME280;51986;52.788;41.368;2023-04-08T09:10:02;100264.81;;;13.03;32.26
65384;BME280;51986;52.788;41.368;2023-04-08T09:12:29;100259.13;;;13.11;32.41
65384;BME280;51986;52.788;41.368;2023-04-08T09:17:35;100265.59;;;12.82;33.00
65384;BME280;51986;52.788;41.368;2023-04-08T09:22:30;100285.41;;;14.17;30.47
65384;BME280;51986;52.788;41.368;2023-04-08T09:24:57;100269.59;;;13.99;31.59
65384;BME280;51986;52.788;41.368;2023-04-08T09:27:34;100260.91;;;13.32;32.59
65384;BME280;51986;52.788;41.368;2023-04-08T09:30:14;100290.00;;;13.43;32.28
65384;BME280;51986;52.788;41.368;2023-04-08T09:35:19;100257.59;;;13.10;32.34
65384;BME280;51986;52.788;41.368;2023-04-08T09:37:47;100284.06;;;13.18;31.97
65384;BME280;51986;52.788;41.368;2023-04-08T09:40:15;100346.84;;;13.28;32.25
65384;BME280;51986;52.788;41.368;2023-04-08T09:42:47;100281.47;;;13.03;32.79
65384;BME280;51986;52.788;41.368;2023-04-08T09:45:15;100283.03;;;12.61;33.59
65384;BME280;51986;52.788;41.368;2023-04-08T09:48:00;100284.13;;;12.89;32.92
65384;BME280;51986;52.788;41.368;2023-04-08T09:50:32;100283.03;;;12.83;33.37
65384;BME280;51986;52.788;41.368;2023-04-08T09:53:31;100277.28;;;13.09;32.97
65384;BME280;51986;52.788;41.368;2023-04-08T09:56:01;100262.88;;;13.14;33.15
65384;BME280;51986;52.788;41.368;2023-04-08T09:58:48;100272.28;;;13.92;31.81
65384;BME280;51986;52.788;41.368;2023-04-08T10:01:43;100268.81;;;13.39;32.64
65384;BME280;51986;52.788;41.368;2023-04-08T10:04:12;100285.56;;;13.15;32.78
65384;BME280;51986;52.788;41.368;2023-04-08T10:06:40;100282.50;;;13.27;32.87
65384;BME280;51986;52.788;41.368;2023-04-08T10:09:08;100283.34;;;13.06;33.44
65384;BME280;51986;52.788;41.368;2023-04-08T10:11:36;100273.88;;;13.16;33.32
65384;BME280;51986;52.788;41.368;2023-04-08T10:14:03;100290.56;;;13.02;34.31
65384;BME280;51986;52.788;41.368;2023-04-08T10:16:30;100289.06;;;12.98;34.47
65384;BME280;51986;52.788;41.368;2023-04-08T10:18:57;100283.34;;;13.06;35.17
65384;BME280;51986;52.788;41.368;2023-04-08T10:21:38;100270.13;;;12.92;34.88
65384;BME280;51986;52.788;41.368;2023-04-08T10:24:09;100270.69;;;13.50;34.36
65384;BME280;51986;52.788;41.368;2023-04-08T10:26:45;100272.03;;;12.99;34.30
65384;BME280;51986;52.788;41.368;2023-04-08T10:31:49;100266.34;;;13.00;33.43
65384;BME280;51986;52.788;41.368;2023-04-08T10:36:44;100289.47;;;12.78;33.56
65384;BME280;51986;52.788;41.368;2023-04-08T10:39:12;100299.25;;;12.88;33.43
65384;BME280;51986;52.788;41.368;2023-04-08T10:41:46;100298.09;;;13.07;33.93
65384;BME280;51986;52.788;41.368;2023-04-08T10:44:18;100262.19;;;12.88;34.93
65384;BME280;51986;52.788;41.368;2023-04-08T10:46:46;100260.78;;;12.27;35.82
65384;BME280;51986;52.788;41.368;2023-04-08T10:49:15;100304.25;;;12.33;35.70
65384;BME280;51986;52.788;41.368;2023-04-08T10:51:43;100292.13;;;12.64;35.86
65384;BME280;51986;52.788;41.368;2023-04-08T10:54:12;100297.38;;;12.82;36.12
65384;BME280;51986;52.788;41.368;2023-04-08T10:56:50;100309.09;;;12.88;34.85
65384;BME280;51986;52.788;41.368;2023-04-08T10:59:44;100291.69;;;12.91;35.22
65384;BME280;51986;52.788;41.368;2023-04-08T11:02:14;100285.63;;;12.90;35.07
65384;BME280;51986;52.788;41.368;2023-04-08T11:04:41;100307.56;;;13.12;34.89
65384;BME280;51986;52.788;41.368;2023-04-08T11:07:08;100301.56;;;12.65;35.40
65384;BME280;51986;52.788;41.368;2023-04-08T11:09:36;100290.47;;;13.27;34.36
65384;BME280;51986;52.788;41.368;2023-04-08T11:12:03;100273.47;;;13.21;34.08
65384;BME280;51986;52.788;41.368;2023-04-08T11:14:30;100283.25;;;13.28;33.84
65384;BME280;51986;52.788;41.368;2023-04-08T11:16:57;100270.34;;;13.41;34.09
65384;BME280;51986;52.788;41.368;2023-04-08T11:19:24;100293.03;;;13.45;34.42
65384;BME280;51986;52.788;41.368;2023-04-08T11:21:52;100272.63;;;13.35;34.67
65384;BME280;51986;52.788;41.368;2023-04-08T11:24:20;100280.31;;;13.11;34.88
65384;BME280;51986;52.788;41.368;2023-04-08T11:26:47;100260.25;;;12.96;35.48
65384;BME280;51986;52.788;41.368;2023-04-08T11:29:14;100266.63;;;13.24;34.86
65384;BME280;51986;52.788;41.368;2023-04-08T11:31:42;100278.09;;;12.85;35.56
65384;BME280;51986;52.788;41.368;2023-04-08T11:34:10;100294.72;;;12.85;35.88
65384;BME280;51986;52.788;41.368;2023-04-08T11:36:40;100273.97;;;12.62;35.75
65384;BME280;51986;52.788;41.368;2023-04-08T11:39:11;100282.69;;;12.24;36.86
65384;BME280;51986;52.788;41.368;2023-04-08T11:41:38;100263.75;;;12.75;35.99
65384;BME280;51986;52.788;41.368;2023-04-08T11:44:06;100294.72;;;13.00;35.32
65384;BME280;51986;52.788;41.368;2023-04-08T11:46:34;100274.16;;;13.29;33.91
65384;BME280;51986;52.788;41.368;2023-04-08T11:49:03;100255.34;;;13.09;34.58
65384;BME280;51986;52.788;41.368;2023-04-08T11:51:31;100287.47;;;13.22;34.78
65384;BME280;51986;52.788;41.368;2023-04-08T11:53:58;100280.63;;;13.24;33.83
65384;BME280;51986;52.788;41.368;2023-04-08T11:56:25;100272.47;;;13.67;33.58
65384;BME280;51986;52.788;41.368;2023-04-08T11:58:52;100270.88;;;13.77;33.01
65384;BME280;51986;52.788;41.368;2023-04-08T12:01:19;100282.00;;;14.13;31.90
65384;BME280;51986;52.788;41.368;2023-04-08T12:04:00;100270.19;;;13.66;31.97
65384;BME280;51986;52.788;41.368;2023-04-08T12:06:28;100251.03;;;13.96;30.89
65384;BME280;51986;52.788;41.368;2023-04-08T12:08:58;100250.94;;;14.13;31.13
65384;BME280;51986;52.788;41.368;2023-04-08T12:11:26;100249.75;;;14.22;30.65
65384;BME280;51986;52.788;41.368;2023-04-08T12:13:53;100259.81;;;14.41;29.00
65384;BME280;51986;52.788;41.368;2023-04-08T12:16:20;100270.16;;;14.70;28.84
65384;BME280;51986;52.788;41.368;2023-04-08T12:18:47;100254.38;;;14.89;28.69
65384;BME280;51986;52.788;41.368;2023-04-08T12:21:14;100252.72;;;15.33;27.73
65384;BME280;51986;52.788;41.368;2023-04-08T12:23:41;100251.38;;;15.18;28.20
65384;BME280;51986;52.788;41.368;2023-04-08T12:26:08;100277.34;;;14.69;30.15
65384;BME280;51986;52.788;41.368;2023-04-08T12:28:35;100251.91;;;14.72;30.42
65384;BME280;51986;52.788;41.368;2023-04-08T12:31:02;100268.00;;;14.54;30.86
65384;BME280;51986;52.788;41.368;2023-04-08T12:33:29;100256.44;;;14.33;31.20
65384;BME280;51986;52.788;41.368;2023-04-08T12:35:57;100266.31;;;13.81;31.55
65384;BME280;51986;52.788;41.368;2023-04-08T12:38:24;100253.22;;;13.52;31.90
65384;BME280;51986;52.788;41.368;2023-04-08T12:40:52;100263.69;;;13.07;33.34
65384;BME280;51986;52.788;41.368;2023-04-08T12:43:19;100262.09;;;13.21;33.55
65384;BME280;51986;52.788;41.368;2023-04-08T12:45:46;100239.44;;;13.05;33.05
65384;BME280;51986;52.788;41.368;2023-04-08T12:48:13;100250.84;;;12.88;33.44
65384;BME280;51986;52.788;41.368;2023-04-08T12:50:40;100275.88;;;12.58;34.82
65384;BME280;51986;52.788;41.368;2023-04-08T12:53:07;100224.50;;;12.45;34.32
65384;BME280;51986;52.788;41.368;2023-04-08T12:55:34;100259.19;;;12.76;34.35
65384;BME280;51986;52.788;41.368;2023-04-08T12:58:01;100258.16;;;12.30;35.97
65384;BME280;51986;52.788;41.368;2023-04-08T13:00:28;100252.47;;;11.96;36.84
65384;BME280;51986;52.788;41.368;2023-04-08T13:02:55;100265.31;;;11.91;37.58
65384;BME280;51986;52.788;41.368;2023-04-08T13:05:22;100251.63;;;11.56;38.60
65384;BME280;51986;52.788;41.368;2023-04-08T13:08:08;100254.69;;;11.76;39.03
65384;BME280;51986;52.788;41.368;2023-04-08T13:10:36;100261.47;;;11.59;39.35
65384;BME280;51986;52.788;41.368;2023-04-08T13:13:03;100265.66;;;11.75;38.65
65384;BME280;51986;52.788;41.368;2023-04-08T13:15:30;100257.75;;;12.03;45.99